Time;durP1;ratioP1;P1;durP2;ratioP2;P2;SDS_P1;SDS_P2;PMS_P1;PMS_P2;Temp;Humidity;BMP_temperature;BMP_pressure;BME280_temperature;BME280_humidity;BME280_pressure;Samples;Min_cycle;Max_cycle;Signal;HPM_P1;HPM_P2
2022/04/28 00:01:41;;;;;;;2.38;1.70;;;19.30;92.20;;;;;;4226086;28;20654;-78
2022/04/28 00:03:44;;;;;;;3.38;1.95;;;19.30;92.00;;;;;;4224659;27;20242;-77
2022/04/28 00:05:46;;;;;;;3.45;1.88;;;19.30;92.10;;;;;;4224658;28;20225;-77
2022/04/28 00:07:50;;;;;;;3.63;1.85;;;19.30;92.30;;;;;;4221977;28;20271;-77
2022/04/28 00:09:52;;;;;;;4.38;2.28;;;19.30;92.30;;;;;;4222232;28;20241;-77
2022/04/28 00:11:55;;;;;;;2.95;1.60;;;19.30;92.00;;;;;;4221684;28;20222;-78
2022/04/28 00:13:58;;;;;;;3.30;1.92;;;19.30;91.90;;;;;;4220070;27;20284;-78
2022/04/28 00:16:00;;;;;;;3.75;1.77;;;19.30;92.10;;;;;;4221250;27;20217;-77
2022/04/28 00:18:28;;;;;;;3.35;1.70;;;19.30;92.10;;;;;;4223594;28;20634;-77
2022/04/28 00:20:31;;;;;;;3.25;1.75;;;19.30;92.10;;;;;;4222562;27;20217;-77
2022/04/28 00:22:33;;;;;;;2.47;1.90;;;19.30;91.90;;;;;;4224563;28;20260;-78
2022/04/28 00:24:37;;;;;;;4.57;1.70;;;19.20;92.30;;;;;;4223214;27;20273;-77
2022/04/28 00:26:40;;;;;;;3.22;1.90;;;19.20;92.00;;;;;;4224107;27;20545;-77
2022/04/28 00:28:42;;;;;;;3.72;1.90;;;19.20;92.30;;;;;;4219941;28;20226;-77
2022/04/28 00:30:44;;;;;;;3.13;1.80;;;19.20;92.00;;;;;;4222860;27;20218;-77
2022/04/28 00:32:47;;;;;;;2.78;1.70;;;19.20;92.20;;;;;;4223563;28;20378;-77
2022/04/28 00:34:49;;;;;;;2.60;1.83;;;19.20;92.30;;;;;;4204915;28;20230;-77
2022/04/28 00:36:52;;;;;;;3.67;1.83;;;19.20;91.90;;;;;;4196869;28;20336;-77
2022/04/28 00:38:54;;;;;;;3.42;1.95;;;19.20;91.90;;;;;;4198920;28;20227;-77
2022/04/28 00:40:58;;;;;;;4.47;2.20;;;19.20;92.00;;;;;;4198603;28;20937;-77
2022/04/28 00:45:16;;;;;;;3.03;1.70;;;19.20;92.20;;;;;;4198495;28;20215;-77
2022/04/28 00:47:19;;;;;;;4.70;1.73;;;19.20;92.00;;;;;;4198475;28;20219;-79
2022/04/28 00:51:40;;;;;;;3.67;1.80;;;19.10;92.00;;;;;;4200497;28;20642;-76
2022/04/28 00:53:46;;;;;;;3.47;2.20;;;19.20;92.20;;;;;;4200696;28;20242;-76
2022/04/28 00:55:48;;;;;;;4.05;2.20;;;19.10;91.90;;;;;;4201885;28;20271;-77
2022/04/28 00:57:53;;;;;;;4.25;1.77;;;19.10;91.90;;;;;;4202328;28;20231;-76
2022/04/28 00:59:56;;;;;;;2.92;2.20;;;19.20;92.00;;;;;;4198868;28;20231;-76
2022/04/28 01:01:58;;;;;;;3.40;1.83;;;19.10;92.10;;;;;;4199919;28;20203;-76
2022/04/28 01:04:01;;;;;;;3.58;1.95;;;19.10;91.90;;;;;;4198866;28;20215;-77
2022/04/28 01:06:03;;;;;;;2.53;1.67;;;19.10;91.90;;;;;;4199089;28;20268;-76
2022/04/28 01:08:06;;;;;;;3.03;1.60;;;19.20;92.10;;;;;;4200634;28;20678;-77
2022/04/28 01:10:09;;;;;;;4.25;2.20;;;19.10;92.10;;;;;;4201952;28;20740;-76
2022/04/28 01:12:15;;;;;;;4.30;2.03;;;19.10;92.10;;;;;;4203706;28;20218;-76
2022/04/28 01:14:19;;;;;;;3.63;1.95;;;19.10;92.00;;;;;;4200510;28;20639;-76
2022/04/28 01:16:21;;;;;;;4.18;1.75;;;19.10;92.20;;;;;;4200257;28;20580;-76
2022/04/28 01:18:24;;;;;;;3.95;2.03;;;19.10;92.00;;;;;;4201266;28;20292;-76
2022/04/28 01:20:26;;;;;;;2.92;1.80;;;19.10;92.30;;;;;;4200061;28;20219;-76
2022/04/28 01:22:31;;;;;;;2.63;1.52;;;19.10;91.90;;;;;;4203509;28;20210;-76
2022/04/28 01:24:33;;;;;;;2.90;1.67;;;19.10;92.20;;;;;;4196599;28;20215;-76
2022/04/28 01:26:36;;;;;;;2.42;1.70;;;19.10;92.10;;;;;;4196898;28;20227;-76
2022/04/28 01:28:39;;;;;;;2.80;1.85;;;19.10;92.00;;;;;;4203247;28;20666;-76
2022/04/28 01:30:41;;;;;;;2.63;1.70;;;19.10;92.30;;;;;;4198777;28;20252;-76
2022/04/28 01:32:44;;;;;;;2.92;1.90;;;19.10;92.20;;;;;;4203627;28;20581;-76
2022/04/28 01:34:46;;;;;;;2.72;1.60;;;19.10;92.00;;;;;;4217542;28;20295;-76
2022/04/28 01:36:49;;;;;;;3.55;1.73;;;19.10;92.30;;;;;;4224885;28;20230;-76
2022/04/28 01:38:53;;;;;;;4.18;1.90;;;19.10;92.00;;;;;;4224842;28;20218;-76
2022/04/28 01:40:55;;;;;;;4.18;1.90;;;19.10;92.30;;;;;;4218984;28;20212;-76
2022/04/28 01:42:57;;;;;;;2.97;1.90;;;19.10;92.10;;;;;;4223823;28;20255;-76
2022/04/28 01:44:59;;;;;;;4.20;1.80;;;19.10;92.00;;;;;;4221285;28;20201;-76
2022/04/28 01:47:02;;;;;;;3.95;1.90;;;19.00;92.00;;;;;;4218623;28;20275;-77
2022/04/28 01:49:05;;;;;;;3.35;1.85;;;19.00;92.10;;;;;;4224234;28;20198;-76
2022/04/28 01:55:48;;;;;;;3.65;2.08;;;19.00;92.00;;;;;;4226601;28;20201;-76
2022/04/28 01:57:50;;;;;;;2.60;1.75;;;19.00;92.00;;;;;;4226740;28;20278;-76
2022/04/28 01:59:52;;;;;;;2.60;1.77;;;19.00;92.20;;;;;;4226690;28;20210;-76
2022/04/28 02:01:55;;;;;;;3.13;1.83;;;19.00;92.30;;;;;;4222397;28;20285;-76
2022/04/28 02:03:57;;;;;;;2.92;1.80;;;19.00;92.20;;;;;;4228131;27;20221;-76
2022/04/28 02:05:59;;;;;;;3.35;1.77;;;19.00;92.20;;;;;;4226308;28;20267;-76
2022/04/28 02:08:02;;;;;;;3.15;1.92;;;19.00;92.10;;;;;;4221876;27;20217;-76
2022/04/28 02:10:06;;;;;;;4.05;1.90;;;19.00;92.30;;;;;;4223124;27;20275;-77
2022/04/28 02:12:12;;;;;;;3.83;2.00;;;19.00;92.30;;;;;;4224662;27;20685;-76
2022/04/28 02:14:15;;;;;;;4.03;2.15;;;19.00;92.20;;;;;;4224787;27;20288;-76
2022/04/28 02:16:18;;;;;;;2.97;1.73;;;18.90;92.60;;;;;;4227841;28;20276;-76
2022/04/28 02:18:20;;;;;;;2.33;1.65;;;18.90;92.20;;;;;;4227145;28;20311;-76
2022/04/28 02:20:22;;;;;;;3.58;1.75;;;18.90;92.30;;;;;;4227107;27;20218;-81
2022/04/28 02:22:25;;;;;;;3.10;1.77;;;18.90;92.20;;;;;;4233214;27;20263;-81
2022/04/28 02:24:27;;;;;;;2.80;1.75;;;19.00;92.10;;;;;;4233049;27;20334;-81
2022/04/28 02:26:29;;;;;;;3.92;2.00;;;18.90;92.30;;;;;;4227600;28;20243;-81
2022/04/28 02:28:33;;;;;;;4.88;1.83;;;18.90;92.40;;;;;;4230061;27;20275;-81
2022/04/28 02:30:36;;;;;;;3.15;1.85;;;18.90;92.10;;;;;;4230799;27;20262;-81
2022/04/28 02:34:58;;;;;;;2.88;1.70;;;18.90;92.10;;;;;;4224682;28;20234;-81
2022/04/28 02:37:01;;;;;;;3.00;2.00;;;18.90;92.30;;;;;;4232875;27;20209;-81
2022/04/28 02:39:04;;;;;;;4.40;1.75;;;18.90;92.20;;;;;;4231830;27;20238;-81
2022/04/28 02:41:06;;;;;;;3.03;2.03;;;18.90;92.40;;;;;;4227992;27;20234;-81
2022/04/28 02:43:08;;;;;;;4.03;2.15;;;18.90;92.30;;;;;;4227288;27;20635;-81
2022/04/28 02:45:12;;;;;;;3.20;1.85;;;18.90;92.20;;;;;;4228290;27;20611;-81
2022/04/28 02:47:14;;;;;;;4.07;2.20;;;18.90;92.40;;;;;;4228568;27;20210;-81
2022/04/28 02:49:17;;;;;;;3.13;2.03;;;18.90;92.00;;;;;;4229553;27;20222;-81
2022/04/28 02:51:20;;;;;;;2.80;1.85;;;18.90;92.50;;;;;;4228748;28;20222;-81
2022/04/28 02:53:22;;;;;;;3.22;1.85;;;18.90;92.30;;;;;;4226891;28;20217;-81
2022/04/28 02:55:25;;;;;;;3.17;1.60;;;18.90;92.40;;;;;;4221676;28;20230;-81
2022/04/28 02:57:27;;;;;;;3.97;1.83;;;18.90;92.30;;;;;;4223534;27;20523;-81
2022/04/28 02:59:30;;;;;;;3.97;2.05;;;18.80;92.30;;;;;;4235089;27;20266;-81
2022/04/28 03:01:34;;;;;;;4.78;2.08;;;18.90;92.30;;;;;;4233993;27;20277;-81
2022/04/28 03:03:36;;;;;;;3.10;1.77;;;18.90;92.30;;;;;;4233723;27;20267;-81
2022/04/28 03:12:50;;;;;;;2.28;1.60;;;18.80;92.10;;;;;;4178480;28;20258;-81
2022/04/28 03:14:52;;;;;;;3.70;2.22;;;18.80;92.20;;;;;;4177091;28;20441;-81
2022/04/28 03:16:56;;;;;;;3.60;1.77;;;18.80;92.50;;;;;;4178066;28;20257;-81
2022/04/28 03:18:59;;;;;;;3.72;1.70;;;18.80;92.30;;;;;;4219266;28;20280;-81
2022/04/28 03:21:02;;;;;;;5.07;1.98;;;18.80;92.30;;;;;;4226394;27;20225;-82
2022/04/28 03:23:04;;;;;;;5.88;2.17;;;18.80;92.50;;;;;;4226113;28;20226;-81
2022/04/28 03:25:08;;;;;;;3.42;1.70;;;18.80;92.30;;;;;;4229021;27;20240;-81
2022/04/28 03:27:10;;;;;;;2.63;1.70;;;18.80;92.40;;;;;;4229361;27;20213;-81
2022/04/28 03:29:13;;;;;;;3.17;1.67;;;18.80;92.90;;;;;;4229691;27;20230;-81
2022/04/28 03:31:15;;;;;;;2.65;1.42;;;18.80;92.40;;;;;;4232643;27;20254;-81
2022/04/28 03:33:19;;;;;;;5.20;2.10;;;18.80;92.30;;;;;;4227181;27;20214;-81
2022/04/28 03:35:21;;;;;;;3.00;1.75;;;18.80;92.70;;;;;;4227339;27;20553;-81
2022/04/28 03:37:24;;;;;;;3.17;1.88;;;18.80;92.60;;;;;;4227966;27;20251;-82
2022/04/28 03:39:26;;;;;;;3.67;2.20;;;18.80;92.30;;;;;;4226590;28;20283;-82
2022/04/28 03:41:29;;;;;;;3.13;1.90;;;18.80;92.50;;;;;;4228609;28;20333;-81
2022/04/28 03:43:31;;;;;;;4.25;1.98;;;18.70;92.20;;;;;;4230014;27;20278;-81
2022/04/28 03:45:34;;;;;;;4.53;2.17;;;18.80;92.30;;;;;;4224731;27;20214;-81
2022/04/28 03:47:36;;;;;;;3.00;1.60;;;18.70;92.30;;;;;;4224113;27;20271;-81
2022/04/28 03:49:42;;;;;;;3.20;1.98;;;18.80;92.60;;;;;;4226400;27;20218;-81
2022/04/28 03:51:45;;;;;;;4.10;1.85;;;18.70;92.20;;;;;;4228578;27;20209;-81
2022/04/28 03:53:48;;;;;;;2.72;1.73;;;18.70;92.70;;;;;;4223043;27;20259;-81
2022/04/28 03:55:50;;;;;;;3.88;1.70;;;18.70;92.20;;;;;;4225309;27;20234;-81
2022/04/28 03:57:53;;;;;;;2.65;1.90;;;18.70;92.10;;;;;;4229519;27;20818;-81
2022/04/28 03:59:56;;;;;;;4.35;2.17;;;18.70;92.10;;;;;;4232015;27;20326;-81
2022/04/28 04:01:59;;;;;;;2.53;1.70;;;18.70;92.70;;;;;;4226046;27;20666;-81
2022/04/28 04:04:01;;;;;;;3.60;2.00;;;18.70;92.80;;;;;;4227651;27;20550;-81
2022/04/28 04:06:05;;;;;;;3.67;2.03;;;18.70;92.30;;;;;;4225503;28;20628;-81
2022/04/28 04:08:08;;;;;;;3.85;1.95;;;18.70;92.40;;;;;;4226190;28;20263;-81
2022/04/28 04:10:12;;;;;;;3.03;1.77;;;18.70;92.20;;;;;;4227954;27;20274;-81
2022/04/28 04:12:14;;;;;;;4.35;1.85;;;18.70;92.20;;;;;;4229003;27;20209;-80
2022/04/28 04:14:16;;;;;;;4.53;1.80;;;18.70;92.20;;;;;;4224729;27;20266;-81
2022/04/28 04:16:19;;;;;;;5.78;2.17;;;18.70;92.40;;;;;;4225394;27;20310;-81
2022/04/28 04:18:21;;;;;;;3.83;1.88;;;18.70;92.40;;;;;;4221342;28;20264;-81
2022/04/28 04:20:24;;;;;;;3.25;1.88;;;18.70;92.20;;;;;;4224554;27;20217;-81
2022/04/28 04:22:28;;;;;;;3.97;1.92;;;18.70;92.20;;;;;;4224387;28;20290;-81
2022/04/28 04:24:30;;;;;;;2.92;1.85;;;18.70;92.50;;;;;;4225061;28;20218;-81
2022/04/28 04:26:33;;;;;;;3.60;1.83;;;18.70;92.30;;;;;;4227289;28;20275;-81
2022/04/28 04:28:35;;;;;;;3.75;2.10;;;18.70;92.30;;;;;;4227523;27;20218;-81
2022/04/28 04:32:57;;;;;;;4.10;2.10;;;18.60;92.40;;;;;;4223995;27;20209;-81
2022/04/28 04:35:00;;;;;;;3.72;1.98;;;18.70;92.00;;;;;;4205128;27;20269;-81
2022/04/28 04:37:02;;;;;;;4.10;2.20;;;18.60;92.10;;;;;;4204091;28;20272;-81
2022/04/28 04:39:06;;;;;;;4.38;1.90;;;18.60;92.20;;;;;;4203685;28;20222;-81
2022/04/28 04:41:11;;;;;;;5.15;1.77;;;18.60;92.10;;;;;;4212340;28;20288;-81
2022/04/28 04:43:14;;;;;;;3.78;1.90;;;18.70;92.20;;;;;;4220893;28;20244;-81
2022/04/28 04:45:16;;;;;;;5.70;2.00;;;18.60;92.40;;;;;;4224502;28;20622;-81
2022/04/28 04:47:19;;;;;;;4.10;2.10;;;18.60;92.40;;;;;;4218939;28;20218;-81
2022/04/28 04:49:21;;;;;;;3.72;1.80;;;18.60;92.20;;;;;;4220386;28;20239;-81
2022/04/28 04:51:23;;;;;;;3.47;2.22;;;18.60;92.40;;;;;;4219659;28;20217;-81
2022/04/28 04:53:26;;;;;;;4.07;1.88;;;18.70;91.90;;;;;;4222222;28;20225;-81
2022/04/28 04:55:29;;;;;;;3.20;2.00;;;18.60;92.40;;;;;;4221986;28;20295;-81
2022/04/28 04:57:32;;;;;;;4.10;2.03;;;18.60;92.20;;;;;;4225365;28;20238;-81
2022/04/28 04:59:34;;;;;;;3.60;2.15;;;18.60;92.30;;;;;;4224573;28;20226;-81
2022/04/28 05:01:37;;;;;;;3.42;1.98;;;18.60;92.20;;;;;;4221285;28;20214;-81
2022/04/28 05:03:41;;;;;;;4.10;2.03;;;18.60;92.20;;;;;;4224117;28;20226;-81
2022/04/28 05:05:44;;;;;;;4.28;1.88;;;18.60;92.30;;;;;;4222218;28;20202;-81
2022/04/28 05:07:46;;;;;;;3.53;1.85;;;18.60;92.20;;;;;;4224616;28;20263;-81
2022/04/28 05:09:48;;;;;;;3.35;1.70;;;18.60;92.30;;;;;;4221011;28;20211;-81
2022/04/28 05:11:52;;;;;;;3.67;1.80;;;18.60;92.20;;;;;;4222524;28;20280;-80
2022/04/28 05:13:55;;;;;;;3.30;1.83;;;18.60;92.30;;;;;;4223883;28;20274;-81
2022/04/28 05:15:57;;;;;;;3.92;1.98;;;18.60;92.40;;;;;;4225346;28;20246;-81
2022/04/28 05:17:59;;;;;;;2.72;1.77;;;18.60;92.50;;;;;;4224119;28;20218;-81
2022/04/28 05:20:02;;;;;;;4.80;2.00;;;18.60;92.20;;;;;;4224386;28;20233;-81
2022/04/28 05:22:04;;;;;;;2.40;1.60;;;18.60;92.50;;;;;;4225803;28;20262;-81
2022/04/28 05:24:07;;;;;;;4.00;1.90;;;18.60;92.30;;;;;;4221909;28;20654;-81
2022/04/28 05:26:09;;;;;;;4.22;1.95;;;18.60;92.40;;;;;;4220341;28;20218;-81
2022/04/28 05:28:13;;;;;;;3.47;1.58;;;18.70;92.50;;;;;;4223527;28;20222;-81
2022/04/28 05:30:16;;;;;;;3.70;2.08;;;18.60;92.20;;;;;;4219506;28;20267;-81
2022/04/28 05:32:18;;;;;;;3.47;1.92;;;18.60;92.30;;;;;;4221401;28;20573;-81
2022/04/28 05:34:20;;;;;;;3.28;1.70;;;18.70;92.50;;;;;;4222026;28;20237;-81
2022/04/28 05:36:24;;;;;;;5.40;1.83;;;18.60;92.30;;;;;;4224433;28;20346;-81
2022/04/28 05:38:26;;;;;;;4.30;1.90;;;18.60;92.40;;;;;;4223163;28;20666;-80
2022/04/28 05:40:28;;;;;;;4.20;1.90;;;18.70;92.40;;;;;;4222416;28;21648;-81
2022/04/28 05:47:11;;;;;;;3.47;1.88;;;18.70;92.40;;;;;;4220806;28;20194;-83
2022/04/28 05:49:13;;;;;;;5.40;1.80;;;18.70;92.50;;;;;;4221005;28;20218;-81
2022/04/28 05:51:15;;;;;;;3.03;1.77;;;18.70;92.40;;;;;;4223416;28;20255;-81
2022/04/28 05:53:18;;;;;;;4.88;2.28;;;18.70;92.30;;;;;;4224294;28;20221;-81
2022/04/28 05:55:20;;;;;;;4.90;2.20;;;18.70;92.40;;;;;;4221985;28;20309;-80
2022/04/28 05:57:23;;;;;;;4.30;1.90;;;18.70;92.10;;;;;;4219535;28;20222;-80
2022/04/28 05:59:26;;;;;;;5.03;1.88;;;18.70;92.30;;;;;;4221876;28;20201;-81
2022/04/28 06:01:30;;;;;;;3.03;1.58;;;18.60;92.10;;;;;;4222801;28;20275;-81
2022/04/28 06:03:33;;;;;;;4.80;2.08;;;18.70;92.20;;;;;;4222890;28;20209;-81
2022/04/28 06:05:36;;;;;;;3.85;2.58;;;18.70;92.20;;;;;;4225791;28;20980;-81
2022/04/28 06:07:38;;;;;;;2.00;1.63;;;18.70;92.10;;;;;;4223779;28;20654;-81
2022/04/28 06:09:40;;;;;;;3.63;2.23;;;18.70;92.30;;;;;;4223706;28;20213;-81
2022/04/28 06:11:43;;;;;;;2.42;1.95;;;18.70;92.20;;;;;;4223756;28;20576;-81
2022/04/28 06:13:45;;;;;;;3.25;2.25;;;18.70;92.00;;;;;;4225119;28;20718;-81
2022/04/28 06:15:47;;;;;;;2.25;1.70;;;18.70;92.20;;;;;;4221077;28;20234;-81
2022/04/28 06:17:51;;;;;;;4.25;2.03;;;18.70;92.10;;;;;;4222581;28;20268;-81
2022/04/28 06:19:53;;;;;;;3.42;2.03;;;18.70;92.20;;;;;;4224711;28;20213;-80
2022/04/28 06:21:56;;;;;;;5.38;2.17;;;18.70;92.30;;;;;;4224034;28;20279;-81
2022/04/28 06:23:58;;;;;;;3.67;2.05;;;18.70;92.20;;;;;;4222193;28;20213;-81
2022/04/28 06:26:01;;;;;;;3.70;1.92;;;18.70;92.20;;;;;;4222542;28;20674;-81
2022/04/28 06:28:03;;;;;;;4.25;2.33;;;18.70;92.40;;;;;;4220808;28;20218;-82
2022/04/28 06:30:07;;;;;;;4.07;2.15;;;18.70;92.20;;;;;;4223766;28;20213;-81
2022/04/28 06:32:09;;;;;;;2.72;1.90;;;18.70;92.40;;;;;;4224176;28;20229;-81
2022/04/28 06:34:13;;;;;;;2.60;1.70;;;18.70;92.30;;;;;;4220245;28;20282;-81
2022/04/28 06:36:15;;;;;;;3.88;2.00;;;18.80;92.10;;;;;;4223994;28;20233;-81
2022/04/28 06:38:17;;;;;;;4.28;1.95;;;18.70;92.00;;;;;;4224634;28;20222;-81
2022/04/28 06:40:20;;;;;;;4.45;1.90;;;18.70;92.20;;;;;;4221865;28;20268;-81
2022/04/28 06:42:22;;;;;;;4.55;2.00;;;18.70;92.10;;;;;;4223347;28;20517;-81
2022/04/28 06:44:24;;;;;;;2.75;1.95;;;18.80;92.10;;;;;;4221427;28;20215;-81
2022/04/28 06:46:28;;;;;;;4.13;1.92;;;18.70;92.20;;;;;;4222037;28;20334;-80
2022/04/28 06:48:30;;;;;;;4.43;2.00;;;18.70;91.70;;;;;;4220846;28;20263;-81
2022/04/28 06:50:34;;;;;;;6.80;2.28;;;18.70;91.80;;;;;;4224472;28;20219;-80
2022/04/28 06:52:37;;;;;;;9.85;2.38;;;18.70;91.80;;;;;;4222890;28;20217;-81
2022/04/28 06:54:39;;;;;;;5.15;2.22;;;18.60;91.80;;;;;;4221138;28;20210;-81
2022/04/28 06:56:42;;;;;;;4.85;2.10;;;18.60;92.00;;;;;;4223758;28;20246;-79
2022/04/28 06:58:44;;;;;;;7.00;2.08;;;18.70;92.00;;;;;;4222688;28;20238;-79
2022/04/28 07:00:48;;;;;;;3.45;1.80;;;18.70;91.90;;;;;;4220633;28;20218;-80
2022/04/28 07:02:50;;;;;;;4.40;2.22;;;18.80;92.20;;;;;;4217557;28;20217;-79
2022/04/28 07:04:53;;;;;;;3.63;2.10;;;18.90;92.00;;;;;;4220287;28;20577;-78
2022/04/28 07:06:56;;;;;;;4.45;2.03;;;18.90;91.90;;;;;;4222583;28;20264;-80
2022/04/28 07:08:59;;;;;;;6.20;2.47;;;18.80;91.90;;;;;;4210302;28;20280;-83
2022/04/28 07:11:01;;;;;;;4.78;2.42;;;18.90;91.90;;;;;;4224334;28;20251;-79
2022/04/28 07:13:04;;;;;;;9.50;2.42;;;18.90;92.40;;;;;;4219402;28;20229;-80
2022/04/28 07:15:06;;;;;;;5.07;1.85;;;19.00;92.40;;;;;;4218233;28;20214;-80
2022/04/28 07:17:09;;;;;;;5.90;2.20;;;19.00;92.00;;;;;;4220273;27;20291;-79
2022/04/28 07:19:11;;;;;;;3.08;1.90;;;19.00;92.00;;;;;;4218596;28;20251;-80
2022/04/28 07:21:14;;;;;;;4.32;2.22;;;19.00;92.00;;;;;;4215224;28;20222;-78
2022/04/28 07:23:17;;;;;;;3.83;1.75;;;19.10;92.00;;;;;;4219912;28;20221;-81
2022/04/28 07:25:20;;;;;;;2.58;1.80;;;19.10;92.10;;;;;;4215989;28;20213;-81
2022/04/28 07:27:22;;;;;;;4.28;2.15;;;19.10;92.00;;;;;;4214889;28;20248;-80
2022/04/28 07:29:24;;;;;;;3.15;2.10;;;19.20;92.10;;;;;;4216927;28;20279;-78
2022/04/28 07:31:27;;;;;;;7.60;1.90;;;19.20;92.00;;;;;;4220681;28;20275;-80
2022/04/28 07:33:29;;;;;;;4.55;1.85;;;19.20;92.00;;;;;;4221803;28;20222;-79
2022/04/28 07:35:32;;;;;;;4.22;1.83;;;19.20;92.00;;;;;;4218896;28;20225;-79
2022/04/28 07:37:34;;;;;;;5.10;1.80;;;19.20;92.20;;;;;;4213141;27;20246;-81
2022/04/28 07:39:43;;;;;;;3.30;1.80;;;19.20;92.40;;;;;;4216227;28;20222;-76
2022/04/28 07:41:45;;;;;;;5.32;1.83;;;19.20;92.20;;;;;;4208599;28;20209;-76
2022/04/28 07:43:47;;;;;;;3.80;2.05;;;19.30;92.30;;;;;;4211235;28;20230;-74
2022/04/28 07:45:50;;;;;;;3.38;1.80;;;19.30;92.30;;;;;;4216029;28;20279;-76
2022/04/28 07:47:52;;;;;;;4.18;2.05;;;19.40;92.40;;;;;;4214874;28;20240;-75
2022/04/28 07:49:55;;;;;;;4.53;2.00;;;19.40;92.40;;;;;;4211740;28;20271;-75
2022/04/28 07:51:57;;;;;;;5.00;1.77;;;19.40;92.40;;;;;;4221952;28;20266;-76
2022/04/28 07:54:03;;;;;;;7.20;2.10;;;19.40;92.30;;;;;;4214866;28;20812;-76
2022/04/28 07:56:18;;;;;;;5.22;1.83;;;19.40;92.40;;;;;;4216699;28;20218;-74
2022/04/28 07:58:20;;;;;;;4.55;2.13;;;19.40;92.50;;;;;;4215347;28;20222;-75
2022/04/28 08:00:23;;;;;;;5.07;1.83;;;19.50;92.90;;;;;;4215449;28;20222;-75
2022/04/28 08:02:26;;;;;;;4.22;2.10;;;19.60;93.10;;;;;;4215054;28;20627;-75
2022/04/28 08:04:29;;;;;;;5.65;2.03;;;19.60;92.80;;;;;;4216528;28;20209;-75
2022/04/28 08:06:31;;;;;;;3.15;1.95;;;19.60;92.80;;;;;;4208390;28;20218;-75
2022/04/28 08:08:35;;;;;;;4.95;1.70;;;19.60;92.90;;;;;;4214142;28;20222;-76
2022/04/28 08:10:37;;;;;;;3.63;2.00;;;19.60;92.80;;;;;;4211132;28;20279;-76
2022/04/28 08:12:41;;;;;;;7.47;2.30;;;19.50;93.10;;;;;;4213611;28;20213;-75
2022/04/28 08:14:44;;;;;;;4.45;2.15;;;19.60;93.40;;;;;;4215159;28;20226;-76
2022/04/28 08:16:46;;;;;;;7.45;2.30;;;19.60;93.00;;;;;;4211080;28;20310;-76
2022/04/28 08:18:49;;;;;;;6.30;1.90;;;19.60;92.80;;;;;;4210975;28;20263;-76
2022/04/28 08:20:51;;;;;;;4.60;1.60;;;19.60;92.90;;;;;;4215647;28;20210;-77
2022/04/28 08:22:53;;;;;;;4.28;1.90;;;19.60;92.90;;;;;;4220927;28;20218;-76
2022/04/28 08:24:56;;;;;;;7.55;2.70;;;19.70;92.90;;;;;;4212905;28;20221;-78
2022/04/28 08:26:58;;;;;;;5.55;2.15;;;19.70;93.00;;;;;;4215857;28;20268;-75
2022/04/28 08:29:02;;;;;;;6.47;2.50;;;19.70;93.10;;;;;;4214189;28;20640;-75
2022/04/28 08:31:04;;;;;;;3.65;1.88;;;19.70;93.10;;;;;;4215948;28;20221;-76
2022/04/28 08:33:06;;;;;;;5.85;2.30;;;19.70;93.40;;;;;;4211954;28;20214;-75
2022/04/28 08:35:09;;;;;;;5.40;2.20;;;19.80;93.40;;;;;;4193246;28;20305;-77
2022/04/28 08:37:12;;;;;;;4.30;1.85;;;19.70;93.50;;;;;;4192511;28;20285;-76
2022/04/28 08:39:15;;;;;;;6.57;2.05;;;19.80;93.60;;;;;;4187759;28;20260;-76
2022/04/28 08:41:28;;;;;;;4.65;2.05;;;19.70;93.60;;;;;;4192764;28;20268;-76
2022/04/28 08:43:32;;;;;;;5.18;2.25;;;19.70;93.60;;;;;;4194657;28;20614;-76
2022/04/28 08:46:50;;;;;;;5.43;1.98;;;19.80;93.70;;;;;;4196441;28;20292;-75
2022/04/28 08:48:07;;;;;;;6.80;2.08;;;19.80;93.60;;;;;;4193845;28;20570;-75
2022/04/28 08:50:14;;;;;;;5.25;2.17;;;20.00;94.00;;;;;;4193534;28;20651;-77
2022/04/28 08:52:18;;;;;;;4.95;2.25;;;19.90;94.10;;;;;;4197643;28;20720;-78
2022/04/28 08:54:23;;;;;;;7.22;1.92;;;19.90;93.80;;;;;;4194468;28;20741;-79
2022/04/28 08:56:26;;;;;;;5.40;2.17;;;19.90;93.70;;;;;;4194381;28;20279;-78
2022/04/28 08:58:28;;;;;;;6.80;2.40;;;19.90;93.80;;;;;;4190609;28;20230;-78
2022/04/28 09:00:35;;;;;;;5.00;2.35;;;20.00;93.90;;;;;;4190295;28;20704;-75
2022/04/28 09:02:39;;;;;;;6.15;2.33;;;20.00;93.80;;;;;;4192204;28;20567;-75
2022/04/28 09:04:42;;;;;;;5.55;2.00;;;20.00;93.80;;;;;;4189162;28;20206;-75
2022/04/28 09:06:45;;;;;;;6.93;2.17;;;20.00;93.90;;;;;;4183555;28;20283;-75
2022/04/28 09:08:48;;;;;;;3.92;2.00;;;20.00;93.80;;;;;;4189334;28;20659;-75
2022/04/28 09:10:51;;;;;;;3.97;2.15;;;20.00;93.90;;;;;;4191176;28;20283;-76
2022/04/28 09:14:09;;;;;;;9.63;2.20;;;20.00;93.90;;;;;;4196429;28;20619;-75
2022/04/28 09:15:24;;;;;;;4.93;2.45;;;20.00;93.90;;;;;;4189731;28;20230;-73
2022/04/28 09:17:42;;;;;;;4.40;2.08;;;20.10;94.00;;;;;;4192176;28;20239;-73
2022/04/28 09:19:45;;;;;;;3.55;1.90;;;20.10;94.00;;;;;;4191346;28;20300;-74
2022/04/28 09:21:48;;;;;;;7.55;2.70;;;20.10;94.00;;;;;;4191580;28;20285;-74
2022/04/28 09:23:52;;;;;;;4.95;1.90;;;20.10;94.00;;;;;;4193300;28;20261;-73
2022/04/28 09:25:56;;;;;;;4.68;2.75;;;20.10;94.00;;;;;;4192291;28;20612;-73
2022/04/28 09:28:01;;;;;;;4.88;2.63;;;20.20;94.20;;;;;;4190379;28;20214;-73
2022/04/28 09:30:04;;;;;;;4.80;2.08;;;20.20;94.10;;;;;;4183895;28;20733;-73
2022/04/28 09:32:10;;;;;;;8.73;2.60;;;20.10;94.20;;;;;;4191564;28;20226;-76
2022/04/28 09:34:15;;;;;;;4.63;2.22;;;20.20;94.60;;;;;;4198421;28;20238;-75
2022/04/28 09:36:18;;;;;;;6.13;2.25;;;20.20;94.30;;;;;;4194871;28;20257;-73
2022/04/28 09:38:21;;;;;;;3.92;1.90;;;20.20;94.20;;;;;;4195655;28;20283;-74
2022/04/28 09:42:43;;;;;;;6.20;2.65;;;20.20;94.60;;;;;;4188628;28;20671;-75
2022/04/28 09:44:46;;;;;;;4.53;2.08;;;20.20;94.50;;;;;;4203477;28;20621;-72
2022/04/28 09:46:50;;;;;;;5.60;2.00;;;20.20;94.50;;;;;;4201114;28;20219;-74
2022/04/28 09:48:53;;;;;;;7.60;2.17;;;20.20;94.60;;;;;;4189957;28;21072;-74
2022/04/28 09:51:04;;;;;;;5.72;2.40;;;20.10;94.80;;;;;;4198935;28;20283;-74
2022/04/28 09:53:08;;;;;;;6.18;2.53;;;20.10;94.90;;;;;;4195771;28;20259;-75
2022/04/28 09:55:11;;;;;;;9.73;2.38;;;20.20;95.20;;;;;;4204655;28;20219;-74
2022/04/28 09:57:14;;;;;;;13.73;2.88;;;20.30;94.60;;;;;;4199755;28;20264;-72
2022/04/28 09:59:16;;;;;;;6.47;2.50;;;20.30;94.60;;;;;;4192237;28;20227;-74
2022/04/28 10:01:20;;;;;;;5.40;2.35;;;20.30;94.60;;;;;;4188540;28;20253;-72
2022/04/28 10:03:23;;;;;;;9.00;2.40;;;20.30;94.60;;;;;;4195746;28;20222;-75
2022/04/28 10:05:31;;;;;;;11.05;2.50;;;20.30;94.70;;;;;;4197195;28;20227;-73
2022/04/28 10:07:36;;;;;;;7.07;2.47;;;20.30;94.90;;;;;;4196565;28;20221;-75
2022/04/28 10:09:40;;;;;;;9.50;2.55;;;20.30;95.00;;;;;;4196070;28;20211;-73
2022/04/28 10:11:44;;;;;;;7.15;2.80;;;20.30;95.10;;;;;;4199862;28;20225;-73
2022/04/28 10:13:47;;;;;;;6.05;2.15;;;20.20;94.60;;;;;;4201102;28;20272;-74
2022/04/28 10:15:54;;;;;;;6.03;2.38;;;20.20;95.50;;;;;;4199980;28;20269;-79
2022/04/28 10:18:02;;;;;;;8.90;2.70;;;20.10;94.80;;;;;;4197468;28;20375;-81
2022/04/28 10:20:08;;;;;;;4.65;2.63;;;20.30;95.10;;;;;;4196573;28;20206;-79
2022/04/28 10:22:14;;;;;;;11.35;3.20;;;20.30;95.10;;;;;;4195305;28;20750;-77
2022/04/28 10:33:42;;;;;;;5.75;2.30;;;20.30;95.00;;;;;;4209129;27;20261;-79
2022/04/28 10:35:46;;;;;;;9.63;2.40;;;20.30;95.10;;;;;;4222134;28;20734;-78
2022/04/28 10:37:53;;;;;;;5.47;1.98;;;20.30;95.30;;;;;;4219788;28;20714;-81
2022/04/28 10:39:57;;;;;;;7.13;1.92;;;20.30;95.30;;;;;;4215548;27;20273;-82
2022/04/28 10:42:00;;;;;;;9.90;3.25;;;20.30;95.40;;;;;;4228700;27;20221;-82
2022/04/28 10:44:17;;;;;;;4.60;2.40;;;20.30;95.00;;;;;;4221020;27;20620;-82
2022/04/28 10:46:34;;;;;;;4.60;2.58;;;20.30;95.10;;;;;;4219087;28;20222;-80
2022/04/28 10:48:42;;;;;;;5.53;2.40;;;20.30;95.30;;;;;;4219839;27;20274;-81
2022/04/28 10:51:11;;;;;;;7.20;2.33;;;20.30;95.40;;;;;;4221011;27;20858;-82
2022/04/28 10:53:13;;;;;;;9.38;1.92;;;20.30;95.40;;;;;;4223541;27;20674;-82
2022/04/28 10:55:17;;;;;;;8.30;2.65;;;20.30;95.50;;;;;;4215673;27;20222;-81
2022/04/28 10:57:27;;;;;;;5.97;2.17;;;20.30;96.10;;;;;;4221933;27;20218;-79
2022/04/28 10:59:39;;;;;;;7.13;2.05;;;20.30;95.90;;;;;;4214736;28;20271;-74
2022/04/28 11:01:42;;;;;;;4.10;1.80;;;20.30;95.90;;;;;;4218045;27;20225;-73
2022/04/28 11:03:46;;;;;;;4.88;1.92;;;20.20;96.20;;;;;;4211478;27;20701;-72
2022/04/28 11:05:54;;;;;;;9.07;2.40;;;20.20;96.60;;;;;;4219484;27;20221;-75
2022/04/28 11:07:59;;;;;;;4.63;1.90;;;20.20;95.90;;;;;;4224441;27;20224;-73
2022/04/28 11:10:02;;;;;;;12.05;2.45;;;20.30;95.90;;;;;;4213312;28;20243;-74
2022/04/28 11:12:10;;;;;;;4.50;2.00;;;20.30;96.60;;;;;;4215097;27;20225;-73
2022/04/28 11:14:13;;;;;;;8.75;2.05;;;20.40;97.00;;;;;;4215527;27;20270;-75
2022/04/28 11:16:17;;;;;;;5.32;2.25;;;20.50;96.70;;;;;;4213330;28;20213;-73
2022/04/28 11:18:21;;;;;;;4.75;2.15;;;20.40;95.80;;;;;;4219003;27;20701;-73
2022/04/28 11:20:24;;;;;;;6.63;2.05;;;20.50;96.00;;;;;;4221059;27;20230;-74